Flight Track Log - Related Links

Times and Time Zones

All times are in EDT time to prevent confusion due to time zone crossing. See the SKW5476 flight status page for this flight to view local times or setup timezone preferences in your user account.

Time Position Orientation Groundspeed Altitude Reporting Facility
EDT Latitude Longitude Course Direction KTS MPH feet Rate Location/Type
Tue 05:20:20 PM 44.2983 -121.1675 316° Northwest 156 180 6,400  Level Seattle Center
Tue 05:21:21 PM 44.3292 -121.2172 311° West 171 197 8,500 1,835 Climbing Seattle Center
Tue 05:22:00 PM 44.3157 -121.4086 315° West  Level FlightAware Approximate
Tue 05:22:21 PM 44.3583 -121.2694 308° West 171 197 10,100  Level Seattle Center
Tue 05:23:00 PM 44.3634 -121.4634 324° Northwest  Level FlightAware Approximate
Tue 05:23:22 PM 44.3839 -121.3264 302° West 172 198 12,000  Level Seattle Center
Tue 05:24:00 PM 44.3952 -121.5333 315° West  Level FlightAware Approximate
Tue 05:24:23 PM 44.4133 -121.3736 311° West 164 189 13,900  Level Seattle Center
Tue 05:25:24 PM 44.4403 -121.4247 306° West 164 189 15,500 1,033 Climbing Seattle Center
Tue 05:26:25 PM 44.4706 -121.4783 308° West 174 200 16,000 246 Climbing Seattle Center
Tue 05:27:26 PM 44.5111 -121.5494 309° West 224 258 16,000 -49 Level Seattle Center
Tue 05:28:27 PM 44.5483 -121.6172 308° West 222 255 15,900 -50 Descending Seattle Center
Tue 05:29:27 PM 44.5844 -121.6850 307° West 218 251 15,900 -50 Level Seattle Center
Tue 05:30:28 PM 44.6208 -121.7533 307° West 218 251 15,800 -49 Descending Seattle Center
Tue 05:31:29 PM 44.6583 -121.8231 307° West 223 257 15,800  Level Seattle Center
Tue 05:32:30 PM 44.6967 -121.8919 308° West 224 258 15,800 98 Level Seattle Center
Tue 05:33:31 PM 44.7428 -121.9719 309° West 222 255 16,000 -246 Climbing Seattle Center
Tue 05:34:32 PM 44.7806 -122.0433 307° West 227 261 15,300 -818 Descending Seattle Center
Tue 05:34:59 PM 44.7975 -122.0783 304° West 248 285 14,800 -1,154 Descending Seattle Center
Tue 05:35:24 PM 44.8158 -122.1136 306° West 258 297 14,300 -1,263 Descending Seattle Center
Tue 05:36:34 PM 44.8667 -122.2050 308° West 259 298 12,800 -1,246 Descending Seattle Center
Tue 05:37:34 PM 44.9047 -122.2828 305° West 264 304 11,600 -1,190 Descending Seattle Center
Tue 05:38:35 PM 44.9639 -122.3289 331° Northwest 260 299 10,400 -1,200 Descending Seattle Center
Tue 05:39:44 PM 45.0481 -122.3542 348° North 251 289 9,000 -712 Descending Seattle Center
Tue 05:40:33 PM 45.1039 -122.3619 354° North 230 265 9,000 -436 Level Seattle Center
Tue 05:41:34 PM 45.1633 -122.3558 North 221 254 8,200 -992 Descending Seattle Center
Tue 05:42:34 PM 45.2278 -122.3633 355° North 222 255 7,000 -1,190 Descending Seattle Center
Tue 05:43:35 PM 45.2831 -122.3375 18° North 215 247 5,800 -984 Descending Seattle Center
Tue 05:44:36 PM 45.3425 -122.3097 18° North 208 239 5,000 -393 Descending Seattle Center
Tue 05:45:37 PM 45.3953 -122.2819 20° North 208 239 5,000 -545 Level Seattle Center
Tue 05:46:37 PM 45.4525 -122.2858 357° North 223 257 3,900 -992 Descending Seattle Center
Tue 05:47:38 PM 45.4972 -122.3444 317° Northwest 224 258 3,000 -639 Descending Seattle Center
Tue 05:48:39 PM 45.5242 -122.4136 299° West 188 216 2,600 -393 Descending Seattle Center

Login

Don't have an account? Register now (free) for customized features, flight alerts, and more!